createdAt,value
2019-02-25T00:00:10.588Z,87.60
2019-02-25T00:02:39.301Z,87.90
2019-02-25T00:05:08.669Z,88.30
2019-02-25T00:07:37.161Z,88.00
2019-02-25T00:10:08.570Z,88.10
2019-02-25T00:12:37.057Z,87.40
2019-02-25T00:15:08.227Z,87.00
2019-02-25T00:17:38.445Z,86.00
2019-02-25T00:20:10.067Z,84.60
2019-02-25T00:22:38.772Z,84.30
2019-02-25T00:25:10.523Z,84.10
2019-02-25T00:27:39.138Z,83.30
2019-02-25T00:30:13.476Z,82.80
2019-02-25T00:32:42.084Z,82.60
2019-02-25T00:35:10.715Z,83.40
2019-02-25T00:37:39.277Z,85.00
2019-02-25T00:40:13.147Z,86.60
2019-02-25T00:42:41.771Z,87.40
2019-02-25T00:45:12.609Z,87.00
2019-02-25T00:47:41.211Z,85.50
2019-02-25T00:50:14.889Z,84.50
2019-02-25T00:52:43.530Z,83.60
2019-02-25T00:55:12.999Z,84.00
2019-02-25T00:57:41.502Z,83.80
2019-02-25T01:00:20.343Z,83.40
2019-02-25T01:02:49.249Z,84.20
2019-02-25T01:05:18.432Z,86.70
2019-02-25T01:07:47.065Z,88.60
2019-02-25T01:10:16.759Z,89.80
2019-02-25T01:12:46.410Z,90.10
2019-02-25T01:15:16.232Z,89.80
2019-02-25T01:17:44.897Z,90.20
2019-02-25T01:20:15.621Z,90.60
2019-02-25T01:22:44.234Z,90.50
2019-02-25T01:25:15.082Z,90.10
2019-02-25T01:27:43.668Z,89.60
2019-02-25T01:30:20.461Z,88.30
2019-02-25T01:32:49.035Z,89.70
2019-02-25T01:35:17.656Z,90.00
2019-02-25T01:37:46.186Z,90.00
2019-02-25T01:40:15.211Z,90.20
2019-02-25T01:42:43.749Z,90.20
2019-02-25T01:45:15.399Z,90.10
2019-02-25T01:47:43.867Z,89.50
2019-02-25T01:50:12.679Z,88.20
2019-02-25T01:52:41.233Z,86.70
2019-02-25T01:55:11.136Z,87.00
2019-02-25T01:57:39.864Z,87.10
2019-02-25T02:00:14.178Z,87.80
2019-02-25T02:02:42.789Z,87.60
2019-02-25T02:05:11.533Z,89.50
2019-02-25T02:07:40.172Z,90.40
2019-02-25T02:10:14.340Z,90.60
2019-02-25T02:12:42.944Z,90.80
2019-02-25T02:15:19.243Z,91.10
2019-02-25T02:17:47.878Z,91.10
2019-02-25T02:20:17.290Z,90.40
2019-02-25T02:22:45.971Z,90.00
2019-02-25T02:25:14.905Z,89.50
2019-02-25T02:27:43.558Z,88.90
2019-02-25T02:30:15.131Z,88.70
2019-02-25T02:32:43.754Z,90.20
2019-02-25T02:35:12.439Z,90.20
2019-02-25T02:37:41.021Z,89.70
2019-02-25T02:40:11.795Z,88.60
2019-02-25T02:42:43.541Z,88.60
2019-02-25T02:45:43.850Z,87.80
2019-02-25T02:48:24.181Z,87.60
2019-02-25T02:50:52.755Z,87.30
2019-02-25T02:53:21.240Z,88.00
2019-02-25T02:55:49.812Z,89.10
2019-02-25T02:58:18.287Z,90.00
2019-02-25T03:00:46.848Z,91.40
2019-02-25T03:03:15.317Z,91.60
2019-02-25T03:05:43.879Z,91.90
2019-02-25T03:08:12.434Z,91.90
2019-02-25T03:10:41.004Z,91.90
2019-02-25T03:13:09.539Z,91.90
2019-02-25T03:15:38.056Z,92.00
2019-02-25T03:18:06.594Z,91.90
2019-02-25T03:20:35.163Z,91.50
2019-02-25T03:23:03.879Z,90.80
2019-02-25T03:25:32.343Z,90.40
2019-02-25T03:28:00.836Z,90.70
2019-02-25T03:30:29.321Z,90.90
2019-02-25T03:32:57.890Z,90.90
2019-02-25T03:35:26.431Z,90.90
2019-02-25T03:37:54.992Z,90.70
2019-02-25T03:40:24.307Z,90.30
2019-02-25T03:42:52.918Z,89.90
2019-02-25T03:45:21.509Z,89.60
2019-02-25T03:47:50.051Z,89.60
2019-02-25T03:50:18.669Z,90.60
2019-02-25T03:52:47.376Z,91.80
2019-02-25T03:55:18.040Z,91.70
2019-02-25T03:57:46.844Z,91.90
2019-02-25T04:00:20.937Z,91.80
2019-02-25T04:02:49.546Z,91.70
2019-02-25T04:05:18.158Z,91.20
2019-02-25T04:07:46.863Z,90.70
2019-02-25T04:10:15.739Z,90.50
2019-02-25T04:12:44.376Z,90.40
2019-02-25T04:15:19.565Z,90.60
2019-02-25T04:17:48.282Z,90.50
2019-02-25T04:20:17.756Z,90.30
2019-02-25T04:22:46.282Z,90.20
2019-02-25T04:25:14.924Z,90.20
2019-02-25T04:27:43.534Z,90.50
2019-02-25T04:30:16.534Z,90.70
2019-02-25T04:32:45.117Z,90.70
2019-02-25T04:35:14.203Z,90.80
2019-02-25T04:37:42.833Z,90.50
2019-02-25T04:40:12.950Z,90.60
2019-02-25T04:42:41.665Z,90.50
2019-02-25T04:45:15.668Z,90.30
2019-02-25T04:47:44.308Z,90.60
2019-02-25T04:50:13.686Z,90.50
2019-02-25T04:52:42.319Z,90.20
2019-02-25T04:55:12.160Z,90.70
2019-02-25T04:57:40.975Z,90.90
2019-02-25T05:00:16.877Z,91.20
2019-02-25T05:02:45.439Z,91.10
2019-02-25T05:05:14.037Z,91.00
2019-02-25T05:07:42.669Z,91.00
2019-02-25T05:10:15.300Z,91.10
2019-02-25T05:12:45.507Z,91.70
2019-02-25T05:15:15.752Z,91.50
2019-02-25T05:17:44.253Z,91.40
2019-02-25T05:20:13.034Z,91.40
2019-02-25T05:22:41.535Z,91.80
2019-02-25T05:25:11.906Z,92.00
2019-02-25T05:27:40.417Z,92.20
2019-02-25T05:30:16.709Z,92.00
2019-02-25T05:32:45.220Z,92.10
2019-02-25T05:35:14.217Z,91.70
2019-02-25T05:37:42.878Z,91.40
2019-02-25T05:40:16.249Z,91.30
2019-02-25T05:42:44.787Z,91.10
2019-02-25T05:45:14.475Z,91.10
2019-02-25T05:47:43.043Z,91.10
2019-02-25T05:50:19.471Z,91.10
2019-02-25T05:52:48.035Z,91.10
2019-02-25T05:55:17.169Z,91.10
2019-02-25T05:57:46.046Z,91.20
2019-02-25T06:00:19.338Z,91.50
2019-02-25T06:02:47.976Z,91.80
2019-02-25T06:05:16.562Z,91.50
2019-02-25T06:07:45.083Z,91.40
2019-02-25T06:10:14.401Z,91.50
2019-02-25T06:12:42.996Z,91.20
2019-02-25T06:15:16.526Z,92.10
2019-02-25T06:17:45.193Z,91.80
2019-02-25T06:20:15.620Z,91.40
2019-02-25T06:22:44.186Z,91.30
2019-02-25T06:25:13.907Z,91.10
2019-02-25T06:27:42.613Z,91.10
2019-02-25T06:30:16.484Z,90.50
2019-02-25T06:32:44.993Z,90.80
2019-02-25T06:35:13.794Z,90.90
2019-02-25T06:37:42.332Z,91.10
2019-02-25T06:40:16.422Z,91.20
2019-02-25T06:42:44.942Z,91.10
2019-02-25T06:45:25.398Z,90.90
2019-02-25T06:47:53.899Z,91.00
2019-02-25T06:50:22.455Z,91.50
2019-02-25T06:52:50.984Z,91.60
2019-02-25T06:55:19.551Z,91.60
2019-02-25T06:57:48.020Z,91.60
2019-02-25T07:00:21.534Z,91.50
2019-02-25T07:02:50.075Z,90.80
2019-02-25T07:05:26.648Z,89.50
2019-02-25T07:07:56.880Z,89.00
2019-02-25T07:10:35.766Z,88.00
2019-02-25T07:13:21.085Z,86.70
2019-02-25T07:15:51.282Z,84.80
2019-02-25T07:18:21.401Z,84.70
2019-02-25T07:20:54.579Z,86.50
2019-02-25T07:23:27.652Z,87.40
2019-02-25T07:26:00.562Z,86.90
2019-02-25T07:28:30.891Z,87.00
2019-02-25T07:31:01.187Z,86.90
2019-02-25T07:33:49.779Z,86.20
2019-02-25T07:36:35.344Z,84.60
2019-02-25T07:39:16.209Z,83.50
2019-02-25T07:41:46.502Z,83.70
2019-02-25T07:44:19.497Z,83.70
2019-02-25T07:46:52.512Z,83.00
2019-02-25T07:49:46.556Z,82.00
2019-02-25T07:52:32.026Z,80.30
2019-02-25T07:55:05.211Z,78.70
2019-02-25T07:57:35.428Z,78.40
2019-02-25T08:00:06.925Z,76.70
2019-02-25T08:02:53.196Z,75.60
2019-02-25T08:05:32.381Z,74.90
2019-02-25T08:08:02.610Z,74.60
2019-02-25T08:10:35.668Z,72.90
2019-02-25T08:13:06.094Z,72.50
2019-02-25T08:15:52.330Z,70.50
2019-02-25T08:18:22.617Z,69.50
2019-02-25T08:20:52.916Z,69.90
2019-02-25T08:23:25.622Z,70.30
2019-02-25T08:26:14.297Z,71.40
2019-02-25T08:28:44.412Z,71.40
2019-02-25T08:31:23.435Z,71.20
2019-02-25T08:33:59.861Z,70.50
2019-02-25T08:37:02.418Z,68.50
2019-02-25T08:39:30.895Z,67.40
2019-02-25T08:42:04.133Z,64.40
2019-02-25T08:44:37.542Z,66.50
2019-02-25T08:47:07.807Z,65.00
2019-02-25T08:49:38.099Z,64.40
2019-02-25T08:52:06.827Z,63.20
2019-02-25T08:54:35.551Z,60.80
2019-02-25T08:57:04.283Z,61.00
2019-02-25T08:59:33.144Z,59.70
2019-02-25T09:02:01.875Z,57.90
2019-02-25T09:04:30.546Z,57.30
2019-02-25T09:06:59.243Z,56.20
2019-02-25T09:09:27.845Z,55.90
2019-02-25T09:11:56.517Z,55.90
2019-02-25T09:14:25.087Z,55.80
2019-02-25T09:16:53.674Z,54.90
2019-02-25T09:19:22.208Z,54.80
2019-02-25T09:21:50.769Z,54.30
2019-02-25T09:24:19.351Z,53.70
2019-02-25T09:26:47.875Z,52.50
2019-02-25T09:29:16.425Z,50.00
2019-02-25T09:31:45.098Z,51.90
2019-02-25T09:34:13.729Z,51.20
2019-02-25T09:36:42.264Z,50.20
2019-02-25T09:39:11.384Z,48.50
2019-02-25T09:41:39.991Z,48.20
2019-02-25T09:44:08.645Z,47.10
2019-02-25T09:46:37.259Z,47.50
2019-02-25T09:49:05.907Z,46.60
2019-02-25T09:51:34.503Z,45.50
2019-02-25T09:54:03.085Z,47.20
2019-02-25T09:56:31.638Z,47.30
2019-02-25T09:59:00.304Z,46.90
2019-02-25T10:01:29.019Z,49.20
2019-02-25T10:03:57.623Z,47.10
2019-02-25T10:06:26.305Z,48.20
2019-02-25T10:08:55.023Z,46.60
2019-02-25T10:11:23.560Z,46.60
2019-02-25T10:13:52.142Z,47.80
2019-02-25T10:16:20.719Z,45.80
2019-02-25T10:18:49.329Z,45.10
2019-02-25T10:21:17.887Z,43.40
2019-02-25T10:23:46.700Z,43.10
2019-02-25T10:26:15.299Z,42.90
2019-02-25T10:28:43.873Z,43.60
2019-02-25T10:31:13.178Z,44.40
2019-02-25T10:33:42.593Z,44.40
2019-02-25T10:36:11.461Z,44.40
2019-02-25T10:38:40.115Z,45.50
2019-02-25T10:41:08.823Z,45.00
2019-02-25T10:43:37.401Z,45.30
2019-02-25T10:46:06.998Z,44.20
2019-02-25T10:48:36.070Z,44.10
2019-02-25T10:51:06.548Z,42.70
2019-02-25T10:53:35.020Z,42.20
2019-02-25T10:56:06.677Z,42.40
2019-02-25T10:58:36.010Z,42.70
2019-02-25T11:01:07.214Z,41.20
2019-02-25T11:03:39.820Z,40.70
2019-02-25T11:06:08.566Z,40.70
2019-02-25T11:08:39.413Z,40.40
2019-02-25T11:11:10.636Z,39.50
2019-02-25T11:13:39.235Z,39.10
2019-02-25T11:16:09.714Z,37.40
2019-02-25T11:18:38.054Z,37.10
2019-02-25T11:21:08.422Z,36.30
2019-02-25T11:23:37.111Z,36.50
2019-02-25T11:26:05.651Z,38.20
2019-02-25T11:28:36.140Z,36.70
2019-02-25T11:31:04.700Z,35.60
2019-02-25T11:33:34.379Z,35.20
2019-02-25T11:36:03.143Z,36.00
2019-02-25T11:38:36.683Z,35.40
2019-02-25T11:41:04.338Z,36.10
2019-02-25T11:43:32.825Z,34.90
2019-02-25T11:46:01.543Z,34.80
2019-02-25T11:48:30.256Z,33.60
2019-02-25T11:50:58.801Z,33.70
2019-02-25T11:53:27.397Z,33.40
2019-02-25T11:55:56.037Z,31.90
2019-02-25T11:58:24.738Z,33.60
2019-02-25T12:00:53.496Z,34.40
2019-02-25T12:03:22.123Z,32.30
2019-02-25T12:05:52.502Z,31.30
2019-02-25T12:08:21.250Z,33.00
2019-02-25T12:10:49.897Z,32.40
2019-02-25T12:13:18.494Z,29.20
2019-02-25T12:15:47.028Z,29.00
2019-02-25T12:18:15.829Z,31.70
2019-02-25T12:20:44.471Z,33.20
2019-02-25T12:23:12.967Z,34.00
2019-02-25T12:25:41.502Z,32.30
2019-02-25T12:28:10.198Z,32.10
2019-02-25T12:30:38.916Z,31.60
2019-02-25T12:33:07.652Z,33.40
2019-02-25T12:35:36.239Z,31.90
2019-02-25T12:38:04.809Z,33.10
2019-02-25T12:40:33.279Z,31.50
2019-02-25T12:43:01.797Z,32.80
2019-02-25T12:45:31.444Z,32.50
2019-02-25T12:48:00.076Z,31.30
2019-02-25T12:50:28.760Z,31.20
2019-02-25T12:52:57.722Z,30.40
2019-02-25T12:55:26.256Z,31.50
2019-02-25T12:57:54.854Z,31.90
2019-02-25T13:00:24.469Z,32.60
2019-02-25T13:02:53.060Z,32.60
2019-02-25T13:05:23.499Z,32.60
2019-02-25T13:07:52.120Z,31.20
2019-02-25T13:10:20.802Z,31.00
2019-02-25T13:12:51.726Z,32.20
2019-02-25T13:15:23.260Z,32.30
2019-02-25T13:17:51.948Z,32.10
2019-02-25T13:20:20.617Z,31.70
2019-02-25T13:22:49.268Z,32.10
2019-02-25T13:25:20.532Z,32.10
2019-02-25T13:27:49.133Z,32.20
2019-02-25T13:30:18.185Z,31.70
2019-02-25T13:32:46.842Z,31.90
2019-02-25T13:35:15.963Z,31.50
2019-02-25T13:37:44.606Z,30.60
2019-02-25T13:40:15.560Z,31.90
2019-02-25T13:42:44.258Z,31.10
2019-02-25T13:45:18.326Z,31.50
2019-02-25T13:47:46.898Z,31.40
2019-02-25T13:50:16.388Z,30.80
2019-02-25T13:52:48.369Z,31.20
2019-02-25T13:55:18.266Z,31.60
2019-02-25T13:57:46.837Z,30.90
2019-02-25T14:00:22.872Z,30.70
2019-02-25T14:02:51.598Z,32.00
2019-02-25T14:05:20.887Z,31.30
2019-02-25T14:07:49.450Z,32.00
2019-02-25T14:10:19.020Z,32.00
2019-02-25T14:12:47.711Z,31.70
2019-02-25T14:15:18.816Z,32.00
2019-02-25T14:17:47.451Z,31.70
2019-02-25T14:20:20.534Z,31.70
2019-02-25T14:22:49.168Z,31.90
2019-02-25T14:25:26.343Z,31.30
2019-02-25T14:27:55.199Z,31.00
2019-02-25T14:30:25.110Z,30.30
2019-02-25T14:32:53.839Z,31.40
2019-02-25T14:35:30.691Z,30.50
2019-02-25T14:38:07.315Z,31.90
2019-02-25T14:40:32.495Z,31.30
2019-02-25T14:43:04.033Z,30.90
2019-02-25T14:45:34.274Z,30.40
2019-02-25T14:48:04.854Z,31.30
2019-02-25T14:50:32.484Z,31.70
2019-02-25T14:53:03.910Z,31.90
2019-02-25T14:55:31.651Z,31.20
2019-02-25T14:58:04.427Z,31.90
2019-02-25T15:00:34.341Z,31.20
2019-02-25T15:03:01.012Z,31.40
2019-02-25T15:05:29.623Z,32.30
2019-02-25T15:07:58.572Z,32.60
2019-02-25T15:10:29.651Z,32.90
2019-02-25T15:12:59.230Z,32.10
2019-02-25T15:15:27.693Z,32.00
2019-02-25T15:17:56.608Z,32.10
2019-02-25T15:20:26.193Z,31.70
2019-02-25T15:22:55.455Z,31.70
2019-02-25T15:25:24.140Z,31.70
2019-02-25T15:27:52.707Z,31.80
2019-02-25T15:30:28.197Z,33.10
2019-02-25T15:32:58.436Z,32.20
2019-02-25T15:35:29.285Z,33.20
2019-02-25T15:37:57.919Z,33.40
2019-02-25T15:40:27.409Z,32.90
2019-02-25T15:43:10.479Z,33.50
2019-02-25T15:45:40.638Z,32.60
2019-02-25T15:48:18.169Z,32.90
2019-02-25T15:50:48.555Z,33.80
2019-02-25T15:53:17.266Z,33.50
2019-02-25T15:55:45.891Z,32.40
2019-02-25T15:58:14.595Z,33.60
2019-02-25T16:00:44.780Z,34.40
2019-02-25T16:03:16.152Z,34.70
2019-02-25T16:05:44.616Z,34.60
2019-02-25T16:08:16.168Z,33.50
2019-02-25T16:10:43.859Z,33.70
2019-02-25T16:13:14.219Z,34.70
2019-02-25T16:15:42.830Z,35.60
2019-02-25T16:18:13.655Z,36.40
2019-02-25T16:20:45.946Z,37.20
2019-02-25T16:23:13.018Z,38.10
2019-02-25T16:25:41.889Z,38.90
2019-02-25T16:28:12.542Z,38.80
2019-02-25T16:30:42.403Z,38.50
2019-02-25T16:33:12.682Z,38.10
2019-02-25T16:35:43.051Z,38.80
2019-02-25T16:38:11.599Z,38.30
2019-02-25T16:40:40.280Z,38.70
2019-02-25T16:43:12.082Z,39.10
2019-02-25T16:45:41.941Z,40.60
2019-02-25T16:48:10.395Z,41.10
2019-02-25T16:50:39.856Z,42.20
2019-02-25T16:53:10.900Z,43.00
2019-02-25T16:55:40.496Z,43.60
2019-02-25T16:58:12.894Z,44.70
2019-02-25T17:00:41.765Z,45.40
2019-02-25T17:03:11.881Z,45.80
2019-02-25T17:05:42.830Z,45.60
2019-02-25T17:08:12.918Z,46.60
2019-02-25T17:10:41.579Z,47.80
2019-02-25T17:13:10.915Z,48.60
2019-02-25T17:15:40.422Z,49.00
2019-02-25T17:18:09.367Z,49.40
2019-02-25T17:20:38.049Z,49.90
2019-02-25T17:23:09.436Z,51.20
2019-02-25T17:25:38.577Z,52.40
2019-02-25T17:28:08.198Z,52.70
2019-02-25T17:30:38.574Z,53.00
2019-02-25T17:33:10.019Z,53.00
2019-02-25T17:35:39.074Z,53.50
2019-02-25T17:38:07.621Z,54.60
2019-02-25T17:40:36.261Z,56.20
2019-02-25T17:43:04.880Z,56.90
2019-02-25T17:45:34.479Z,56.90
2019-02-25T17:48:06.004Z,57.10
2019-02-25T17:50:37.044Z,57.50
2019-02-25T17:53:07.209Z,57.40
2019-02-25T17:55:36.290Z,56.90
2019-02-25T17:58:05.216Z,57.20
2019-02-25T18:00:37.429Z,58.00
2019-02-25T18:03:06.770Z,58.70
2019-02-25T18:05:36.414Z,60.10
2019-02-25T18:08:08.050Z,60.80
2019-02-25T18:10:37.347Z,59.80
2019-02-25T18:13:08.060Z,59.70
2019-02-25T18:15:36.312Z,60.00
2019-02-25T18:18:06.994Z,60.10
2019-02-25T18:20:36.632Z,60.20
2019-02-25T18:23:05.785Z,59.70
2019-02-25T18:25:34.506Z,59.70
2019-02-25T18:28:04.427Z,59.40
2019-02-25T18:30:33.612Z,60.50
2019-02-25T18:33:05.039Z,62.10
2019-02-25T18:35:35.735Z,63.00
2019-02-25T18:38:05.384Z,64.00
2019-02-25T18:40:35.577Z,65.00
2019-02-25T18:43:05.282Z,65.70
2019-02-25T18:45:35.618Z,65.70
2019-02-25T18:48:05.533Z,65.60
2019-02-25T18:50:34.241Z,65.30
2019-02-25T18:53:02.953Z,65.10
2019-02-25T18:55:34.113Z,64.60
2019-02-25T18:58:02.012Z,63.70
2019-02-25T19:00:37.081Z,63.00
2019-02-25T19:03:06.872Z,64.50
2019-02-25T19:05:35.590Z,64.60
2019-02-25T19:08:09.689Z,65.40
2019-02-25T19:10:41.290Z,66.30
2019-02-25T19:13:08.948Z,66.30
2019-02-25T19:15:37.524Z,66.60
2019-02-25T19:18:06.948Z,65.80
2019-02-25T19:20:36.718Z,65.70
2019-02-25T19:23:09.511Z,65.10
2019-02-25T19:25:36.182Z,65.00
2019-02-25T19:28:05.099Z,64.80
2019-02-25T19:30:34.510Z,64.60
2019-02-25T19:33:10.873Z,64.60
2019-02-25T19:35:36.050Z,65.40
2019-02-25T19:38:05.848Z,67.50
2019-02-25T19:40:38.204Z,69.00
2019-02-25T19:43:06.050Z,69.70
2019-02-25T19:45:36.413Z,68.30
2019-02-25T19:48:06.996Z,67.50
2019-02-25T19:50:39.237Z,67.70
2019-02-25T19:53:07.670Z,67.20
2019-02-25T19:55:38.257Z,67.10
2019-02-25T19:58:06.265Z,67.00
2019-02-25T20:00:35.947Z,68.00
2019-02-25T20:03:06.143Z,68.30
2019-02-25T20:05:38.950Z,68.50
2019-02-25T20:08:05.348Z,70.60
2019-02-25T20:10:34.191Z,71.30
2019-02-25T20:13:05.689Z,70.60
2019-02-25T20:15:33.203Z,70.60
2019-02-25T20:18:01.839Z,70.30
2019-02-25T20:20:36.279Z,69.90
2019-02-25T20:23:06.156Z,69.10
2019-02-25T20:25:35.123Z,69.20
2019-02-25T20:28:04.396Z,70.10
2019-02-25T20:30:33.035Z,70.40
2019-02-25T20:33:03.317Z,70.00
2019-02-25T20:35:31.854Z,70.80
2019-02-25T20:38:01.049Z,70.70
2019-02-25T20:40:32.857Z,71.10
2019-02-25T20:43:03.004Z,71.60
2019-02-25T20:45:35.827Z,71.60
2019-02-25T20:48:05.145Z,71.70
2019-02-25T20:50:33.915Z,71.60
2019-02-25T20:53:05.794Z,71.80
2019-02-25T20:55:34.549Z,74.20
2019-02-25T20:58:03.125Z,77.20
2019-02-25T21:00:34.880Z,79.60
2019-02-25T21:03:02.093Z,79.20
2019-02-25T21:05:30.661Z,77.70
2019-02-25T21:07:59.924Z,78.20
2019-02-25T21:10:30.570Z,79.30
2019-02-25T21:13:01.876Z,80.20
2019-02-25T21:15:33.385Z,81.00
2019-02-25T21:18:02.475Z,81.10
2019-02-25T21:20:31.466Z,81.70
2019-02-25T21:23:03.583Z,81.90
2019-02-25T21:25:31.438Z,81.80
2019-02-25T21:28:02.349Z,82.10
2019-02-25T21:30:30.759Z,82.70
2019-02-25T21:32:59.335Z,83.20
2019-02-25T21:35:30.183Z,84.00
2019-02-25T21:37:58.256Z,83.80
2019-02-25T21:40:29.429Z,83.60
2019-02-25T21:42:57.087Z,83.80
2019-02-25T21:45:28.983Z,84.10
2019-02-25T21:47:56.632Z,84.50
2019-02-25T21:50:28.491Z,85.10
2019-02-25T21:52:56.452Z,85.50
2019-02-25T21:55:27.477Z,85.20
2019-02-25T21:57:57.226Z,85.50
2019-02-25T22:00:31.948Z,85.30
2019-02-25T22:02:58.775Z,84.00
2019-02-25T22:05:27.317Z,83.30
2019-02-25T22:07:57.719Z,81.70
2019-02-25T22:10:26.004Z,81.00
2019-02-25T22:12:54.500Z,81.50
2019-02-25T22:15:23.039Z,81.20
2019-02-25T22:17:53.357Z,80.60
2019-02-25T22:20:24.306Z,80.60
2019-02-25T22:22:54.484Z,81.00
2019-02-25T22:25:25.043Z,81.00
2019-02-25T22:27:53.618Z,81.70
2019-02-25T22:30:22.413Z,81.10
2019-02-25T22:32:50.967Z,80.50
2019-02-25T22:35:19.570Z,80.60
2019-02-25T22:37:52.041Z,80.50
2019-02-25T22:40:18.473Z,80.80
2019-02-25T22:42:49.806Z,81.00
2019-02-25T22:45:19.636Z,81.60
2019-02-25T22:47:48.101Z,83.50
2019-02-25T22:50:16.753Z,83.90
2019-02-25T22:52:45.391Z,82.90
2019-02-25T22:55:15.305Z,82.60
2019-02-25T22:57:45.943Z,83.70
2019-02-25T23:00:34.392Z,82.00
2019-02-25T23:03:03.298Z,81.40
2019-02-25T23:05:32.278Z,81.80
2019-02-25T23:08:00.985Z,82.90
2019-02-25T23:10:30.124Z,84.20
2019-02-25T23:12:58.748Z,84.50
2019-02-25T23:15:30.200Z,84.40
2019-02-25T23:18:04.853Z,84.10
2019-02-25T23:20:29.518Z,84.60
2019-02-25T23:23:00.067Z,84.90
2019-02-25T23:25:29.181Z,84.40
2019-02-25T23:27:58.515Z,84.00
2019-02-25T23:30:27.918Z,83.30
2019-02-25T23:32:56.471Z,84.00
2019-02-25T23:35:25.423Z,83.60
2019-02-25T23:37:56.276Z,84.20
2019-02-25T23:40:24.299Z,85.00
2019-02-25T23:42:52.869Z,85.40
2019-02-25T23:45:23.159Z,85.30
2019-02-25T23:47:55.246Z,86.10
2019-02-25T23:50:21.816Z,86.30
2019-02-25T23:52:50.310Z,86.60
2019-02-25T23:55:21.474Z,86.60
2019-02-25T23:57:49.090Z,86.80
